Terminal Aerodrome Forecast
Issued by NWS

Home | Current Version | Previous Version | Text Only | Print | Product List | Glossary On
Versions: 1 2 3 4 5 6 7 8 9 10 11 12 13 14 15 16 17 18 19 20 21 22
000
FTUS46 KSEW 212300
TAFBFI
TAF
KBFI 212320Z 2200/2224 17012KT P6SM BKN040 OVC060
     FM220300 15010KT P6SM -RA OVC030
     FM220900 16012G20KT P6SM -RA OVC030
     FM221800 17010KT P6SM -SHRA BKN030 OVC060=

USA.gov is the U.S. government's official web portal to all federal, state and local government web resources and services.